createdAt,value
2019-06-26T00:02:38.494Z,14.87
2019-06-26T00:05:32.304Z,17.17
2019-06-26T00:08:22.751Z,16.57
2019-06-26T00:11:14.045Z,16.30
2019-06-26T00:14:15.317Z,19.97
2019-06-26T00:17:15.941Z,15.33
2019-06-26T00:20:07.775Z,16.40
2019-06-26T00:22:52.281Z,15.70
2019-06-26T00:26:01.442Z,17.40
2019-06-26T00:28:31.113Z,18.60
2019-06-26T00:31:33.593Z,19.70
2019-06-26T00:34:28.984Z,17.20
2019-06-26T00:37:46.450Z,19.10
2019-06-26T00:40:37.281Z,22.07
2019-06-26T00:43:42.270Z,23.00
2019-06-26T00:46:23.730Z,19.87
2019-06-26T00:49:23.087Z,19.60
2019-06-26T00:52:18.886Z,25.10
2019-06-26T00:55:16.441Z,22.20
2019-06-26T00:58:19.394Z,25.80
2019-06-26T01:01:06.496Z,23.17
2019-06-26T01:03:48.000Z,30.47
2019-06-26T02:33:39.352Z,44.03
2019-06-26T02:36:47.677Z,47.70
2019-06-26T02:39:54.216Z,53.40
2019-06-26T02:42:42.964Z,56.47
2019-06-26T02:45:30.925Z,59.53
2019-06-26T02:48:27.311Z,66.40
2019-06-26T02:51:27.670Z,64.00
2019-06-26T02:57:27.755Z,66.40
2019-06-26T03:00:17.898Z,69.30
2019-06-26T03:03:05.995Z,66.97
2019-06-26T03:06:12.195Z,73.60
2019-06-26T03:15:19.335Z,66.43
2019-06-26T03:18:03.954Z,64.20
2019-06-26T03:24:23.775Z,54.37
2019-06-26T03:27:16.477Z,55.37
2019-06-26T03:30:08.886Z,57.00
2019-06-26T03:33:02.812Z,60.20
2019-06-26T03:36:00.185Z,51.50
2019-06-26T03:38:57.323Z,62.60
2019-06-26T03:41:39.269Z,56.90
2019-06-26T03:44:26.576Z,52.80
2019-06-26T03:47:33.953Z,62.97
2019-06-26T03:50:25.087Z,37.87
2019-06-26T03:53:23.465Z,47.80
2019-06-26T03:56:20.392Z,57.00
2019-06-26T04:02:01.588Z,54.77
2019-06-26T04:04:52.567Z,59.03
2019-06-26T04:08:26.836Z,49.43
2019-06-26T04:12:22.182Z,55.80
2019-06-26T04:18:55.458Z,60.37
2019-06-26T04:21:29.655Z,48.80
2019-06-26T04:24:28.416Z,57.73
2019-06-26T04:27:23.577Z,60.53
2019-06-26T04:30:23.726Z,49.60
2019-06-26T04:33:30.413Z,55.70
2019-06-26T04:39:09.021Z,61.90
2019-06-26T04:42:05.026Z,53.40
2019-06-26T04:45:13.025Z,32.30
2019-06-26T04:48:07.271Z,33.17
2019-06-26T04:50:46.938Z,30.30
2019-06-26T04:57:03.992Z,41.67
2019-06-26T04:59:52.950Z,50.37
2019-06-26T05:03:38.429Z,49.87
2019-06-26T05:11:00.512Z,42.87
2019-06-26T05:14:25.762Z,45.97
2019-06-26T05:17:21.240Z,52.90
2019-06-26T05:24:49.316Z,47.93
2019-06-26T05:35:51.600Z,71.23
2019-06-26T05:38:41.892Z,64.37
2019-06-26T05:41:22.683Z,69.63
2019-06-26T05:44:13.157Z,75.30
2019-06-26T05:50:10.052Z,68.43
2019-06-26T05:52:54.936Z,75.03
2019-06-26T05:55:56.997Z,75.67
2019-06-26T05:58:35.539Z,75.23
2019-06-26T06:01:38.057Z,75.43
2019-06-26T06:04:39.085Z,77.93
2019-06-26T06:07:25.309Z,78.23
2019-06-26T06:10:21.274Z,82.67
2019-06-26T06:16:22.010Z,82.20
2019-06-26T06:19:14.174Z,79.53
2019-06-26T06:22:27.475Z,76.83
2019-06-26T06:25:21.045Z,85.57
2019-06-26T06:31:34.468Z,85.80
2019-06-26T06:34:40.568Z,79.23
2019-06-26T06:37:24.949Z,77.63
2019-06-26T06:40:28.237Z,89.50
2019-06-26T06:43:17.917Z,94.57
2019-06-26T06:46:20.109Z,85.43
2019-06-26T06:49:09.348Z,66.13
2019-06-26T06:52:18.500Z,70.20
2019-06-26T06:54:57.343Z,89.43
2019-06-26T06:57:58.149Z,83.77
2019-06-26T07:01:03.310Z,68.33
2019-06-26T07:04:21.552Z,80.00
2019-06-26T07:10:37.997Z,73.40
2019-06-26T07:13:55.328Z,84.17
2019-06-26T07:16:45.317Z,70.50
2019-06-26T07:19:36.998Z,70.67
2019-06-26T07:22:44.163Z,62.43
2019-06-26T07:25:49.088Z,70.93
2019-06-26T07:28:54.321Z,68.30
2019-06-26T07:32:02.919Z,72.30
2019-06-26T07:34:54.779Z,75.97
2019-06-26T07:38:05.274Z,78.47
2019-06-26T07:40:59.073Z,68.93
2019-06-26T07:44:02.074Z,72.07
2019-06-26T07:47:22.876Z,65.23
2019-06-26T07:53:11.484Z,60.53
2019-06-26T07:59:36.534Z,60.70
2019-06-26T08:02:48.622Z,65.83
2019-06-26T08:09:32.687Z,67.80
2019-06-26T08:12:20.469Z,63.77
2019-06-26T08:14:52.314Z,55.33
2019-06-26T08:18:00.343Z,60.67
2019-06-26T08:21:11.629Z,57.43
2019-06-26T08:26:59.552Z,73.47
2019-06-26T08:30:49.305Z,50.63
2019-06-26T08:34:09.363Z,56.10
2019-06-26T08:37:36.374Z,46.80
2019-06-26T08:40:47.831Z,50.23
2019-06-26T08:43:35.915Z,60.37
2019-06-26T08:46:24.942Z,48.90
2019-06-26T08:49:26.097Z,52.00
2019-06-26T08:52:05.584Z,53.53
2019-06-26T08:54:54.851Z,52.10
2019-06-26T08:58:17.694Z,58.50
2019-06-26T09:00:57.105Z,61.47
2019-06-26T09:03:50.384Z,48.50
2019-06-26T09:06:36.713Z,56.73
2019-06-26T09:09:39.192Z,58.80
2019-06-26T09:16:08.722Z,55.03
2019-06-26T09:19:58.759Z,56.47
2019-06-26T09:22:40.386Z,54.33
2019-06-26T09:25:41.097Z,47.27
2019-06-26T09:28:25.583Z,54.90
2019-06-26T09:31:23.594Z,66.93
2019-06-26T09:34:33.600Z,54.93
2019-06-26T09:37:48.613Z,56.60
2019-06-26T09:40:53.767Z,61.10
2019-06-26T09:43:43.696Z,52.70
2019-06-26T09:46:57.913Z,84.70
2019-06-26T09:49:59.631Z,58.43
2019-06-26T09:52:54.894Z,59.80
2019-06-26T09:56:05.200Z,57.07
2019-06-26T09:59:04.060Z,75.10
2019-06-26T10:02:06.733Z,59.27
2019-06-26T10:08:58.492Z,52.27
2019-06-26T10:15:54.524Z,52.00
2019-06-26T10:19:09.970Z,47.20
2019-06-26T10:21:51.672Z,50.60
2019-06-26T10:36:45.648Z,60.97
2019-06-26T10:40:26.394Z,57.53
2019-06-26T10:43:09.098Z,57.03
2019-06-26T10:46:03.648Z,60.63
2019-06-26T10:48:56.295Z,68.07
2019-06-26T10:56:13.179Z,71.77
2019-06-26T10:59:59.082Z,53.70
2019-06-26T11:13:28.507Z,45.70
2019-06-26T11:16:30.520Z,38.47
2019-06-26T11:19:59.383Z,45.10
2019-06-26T11:22:57.979Z,49.53
2019-06-26T11:26:01.942Z,41.90
2019-06-26T11:32:42.613Z,39.17
2019-06-26T11:36:01.589Z,59.43
2019-06-26T11:42:48.242Z,46.53
2019-06-26T11:49:59.791Z,48.87
2019-06-26T11:57:02.236Z,46.33
2019-06-26T12:00:26.714Z,37.07
2019-06-26T12:15:26.995Z,34.43
2019-06-26T12:58:30.127Z,31.07
2019-06-26T13:33:26.143Z,29.57
2019-06-26T13:36:55.430Z,26.93
2019-06-26T13:44:18.863Z,31.50
2019-06-26T13:47:37.465Z,29.20
2019-06-26T13:53:42.558Z,28.03
2019-06-26T13:57:36.350Z,27.67
2019-06-26T14:00:23.139Z,29.83
2019-06-26T14:03:40.231Z,24.90
2019-06-26T14:07:01.895Z,19.37
2019-06-26T14:14:52.667Z,22.70
2019-06-26T14:17:54.166Z,17.60
2019-06-26T14:24:39.459Z,14.53
2019-06-26T14:28:49.630Z,21.10
2019-06-26T14:50:14.362Z,18.60
2019-06-26T14:56:28.281Z,13.80
2019-06-26T15:00:08.284Z,12.83
2019-06-26T15:03:17.880Z,13.00
2019-06-26T15:09:39.465Z,12.43
2019-06-26T15:12:48.493Z,12.87
2019-06-26T15:15:37.870Z,11.37
2019-06-26T15:18:53.799Z,29.83
2019-06-26T15:21:58.294Z,12.93
2019-06-26T15:24:54.982Z,11.20
2019-06-26T15:28:20.294Z,11.67
2019-06-26T15:31:59.904Z,12.20
2019-06-26T15:35:17.142Z,12.57
2019-06-26T15:38:38.338Z,18.23
2019-06-26T15:45:21.689Z,11.83
2019-06-26T15:56:21.164Z,13.50
2019-06-26T15:59:40.872Z,9.73
2019-06-26T16:06:46.996Z,13.33
2019-06-26T16:09:57.266Z,13.87
2019-06-26T16:13:15.840Z,13.90
2019-06-26T16:16:44.727Z,12.10
2019-06-26T16:19:57.949Z,11.83
2019-06-26T16:23:14.185Z,12.90
2019-06-26T16:26:39.537Z,13.60
2019-06-26T16:29:47.745Z,14.90
2019-06-26T16:48:04.070Z,11.20
2019-06-26T16:51:32.975Z,16.43
2019-06-26T16:54:35.098Z,13.60
2019-06-26T16:58:12.880Z,13.00
2019-06-26T17:13:23.038Z,10.40
2019-06-26T17:16:30.349Z,12.60
2019-06-26T17:20:22.143Z,10.63
2019-06-26T17:23:09.428Z,9.97
2019-06-26T17:30:18.150Z,14.83
2019-06-26T17:49:26.934Z,11.47
2019-06-26T17:52:28.921Z,13.03
2019-06-26T17:55:32.946Z,19.07
2019-06-26T18:03:07.109Z,9.23
2019-06-26T18:06:00.825Z,7.17
2019-06-26T18:09:00.504Z,7.80
2019-06-26T18:12:13.403Z,16.10
2019-06-26T18:15:33.943Z,12.23
2019-06-26T18:18:19.057Z,9.20
2019-06-26T18:21:47.741Z,8.07
2019-06-26T18:24:39.360Z,11.13
2019-06-26T18:27:51.428Z,11.70
2019-06-26T18:30:43.394Z,13.20
2019-06-26T18:38:13.397Z,9.50
2019-06-26T18:41:32.479Z,9.63
2019-06-26T18:44:26.828Z,8.63
2019-06-26T18:47:46.995Z,8.00
2019-06-26T18:54:49.709Z,7.03
2019-06-26T19:01:49.486Z,10.27
2019-06-26T19:05:03.491Z,6.40
2019-06-26T19:08:45.683Z,16.80
2019-06-26T19:12:00.127Z,10.03
2019-06-26T19:15:49.023Z,5.70
2019-06-26T19:18:52.392Z,10.00
2019-06-26T19:21:42.223Z,6.50
2019-06-26T19:25:07.952Z,5.90
2019-06-26T19:28:46.656Z,5.80
2019-06-26T19:32:01.352Z,3.67
2019-06-26T19:35:19.217Z,5.40
2019-06-26T19:42:51.071Z,3.67
2019-06-26T19:53:31.714Z,3.67
2019-06-26T20:04:43.671Z,4.40
2019-06-26T20:08:18.388Z,2.97
2019-06-26T20:14:41.670Z,4.30
2019-06-26T20:17:48.238Z,6.67
2019-06-26T20:20:58.033Z,4.40
2019-06-26T20:24:25.506Z,9.70
2019-06-26T20:27:31.825Z,5.37
2019-06-26T20:30:59.257Z,5.33
2019-06-26T20:37:34.594Z,10.50
2019-06-26T20:40:57.292Z,5.13
2019-06-26T20:44:17.229Z,3.10
2019-06-26T20:47:57.240Z,6.00
2019-06-26T20:52:10.477Z,8.30
2019-06-26T20:58:20.487Z,4.10
2019-06-26T21:02:15.175Z,3.40
2019-06-26T21:05:04.117Z,4.50
2019-06-26T21:08:45.533Z,3.50
2019-06-26T21:15:35.575Z,9.83
2019-06-26T21:18:56.849Z,5.23
2019-06-26T21:22:08.004Z,4.47
2019-06-26T21:25:20.193Z,11.00
2019-06-26T21:28:43.871Z,5.10
2019-06-26T21:32:06.004Z,8.60
2019-06-26T21:35:11.472Z,14.20
2019-06-26T21:38:36.581Z,6.20
2019-06-26T21:41:48.183Z,6.33
2019-06-26T21:45:27.459Z,4.93
2019-06-26T21:52:36.975Z,3.93
2019-06-26T21:55:57.739Z,6.47
2019-06-26T21:59:11.790Z,11.53
2019-06-26T22:02:43.675Z,8.37
2019-06-26T22:05:58.114Z,4.93
2019-06-26T22:09:04.935Z,5.13
2019-06-26T22:12:11.858Z,6.80
2019-06-26T22:15:26.998Z,6.17
2019-06-26T22:18:37.864Z,7.10
2019-06-26T22:24:08.270Z,4.53
2019-06-26T22:27:14.273Z,5.70
2019-06-26T22:30:17.254Z,3.20
2019-06-26T22:33:12.102Z,9.03
2019-06-26T22:36:07.373Z,5.37
2019-06-26T22:39:25.365Z,5.43
2019-06-26T22:42:26.909Z,2.20
2019-06-26T22:45:31.246Z,3.93
2019-06-26T22:55:22.190Z,12.33
2019-06-26T22:58:28.291Z,6.03
2019-06-26T23:01:44.205Z,6.00
2019-06-26T23:04:55.715Z,7.87
2019-06-26T23:07:49.669Z,12.00
2019-06-26T23:11:10.769Z,10.00
2019-06-26T23:14:52.533Z,4.37
2019-06-26T23:17:58.624Z,8.20
2019-06-26T23:21:20.514Z,3.83
2019-06-26T23:24:36.670Z,4.47
2019-06-26T23:27:39.269Z,3.70
2019-06-26T23:30:58.605Z,5.90
2019-06-26T23:34:02.195Z,6.73
2019-06-26T23:36:46.573Z,4.60
2019-06-26T23:39:56.930Z,6.47
2019-06-26T23:43:00.622Z,3.83
2019-06-26T23:46:06.115Z,4.80
2019-06-26T23:49:04.853Z,4.53
2019-06-26T23:52:13.880Z,3.97
2019-06-26T23:55:26.786Z,10.20
